sensor_id;sensor_type;location;lat;lon;timestamp;pressure;altitude;pressure_sealevel;temperature;humidity
64053;BME280;50299;49.524;8.536;2024-02-16T00:01:40;100310.81;;;9.80;59.72
64053;BME280;50299;49.524;8.536;2024-02-16T00:04:07;100301.56;;;9.67;60.01
64053;BME280;50299;49.524;8.536;2024-02-16T00:06:34;100295.22;;;9.58;59.79
64053;BME280;50299;49.524;8.536;2024-02-16T00:09:00;100306.41;;;9.70;60.28
64053;BME280;50299;49.524;8.536;2024-02-16T00:11:27;100301.22;;;9.86;60.20
64053;BME280;50299;49.524;8.536;2024-02-16T00:13:55;100299.78;;;9.80;60.27
64053;BME280;50299;49.524;8.536;2024-02-16T00:16:21;100297.50;;;9.65;59.94
64053;BME280;50299;49.524;8.536;2024-02-16T00:18:48;100300.59;;;9.54;60.32
64053;BME280;50299;49.524;8.536;2024-02-16T00:21:15;100294.09;;;9.68;60.50
64053;BME280;50299;49.524;8.536;2024-02-16T00:23:43;100291.69;;;9.75;59.60
64053;BME280;50299;49.524;8.536;2024-02-16T00:26:11;100293.44;;;9.62;59.56
64053;BME280;50299;49.524;8.536;2024-02-16T00:28:37;100292.16;;;9.51;60.43
64053;BME280;50299;49.524;8.536;2024-02-16T00:31:04;100285.31;;;9.57;60.20
64053;BME280;50299;49.524;8.536;2024-02-16T00:33:32;100290.38;;;9.55;60.22
64053;BME280;50299;49.524;8.536;2024-02-16T00:36:00;100288.75;;;9.62;59.23
64053;BME280;50299;49.524;8.536;2024-02-16T00:38:29;100283.91;;;9.42;60.05
64053;BME280;50299;49.524;8.536;2024-02-16T00:40:55;100282.25;;;9.58;60.62
64053;BME280;50299;49.524;8.536;2024-02-16T00:43:22;100279.63;;;9.62;60.18
64053;BME280;50299;49.524;8.536;2024-02-16T00:45:48;100281.44;;;9.41;60.15
64053;BME280;50299;49.524;8.536;2024-02-16T00:48:15;100278.84;;;9.44;60.06
64053;BME280;50299;49.524;8.536;2024-02-16T00:50:42;100267.66;;;9.41;60.21
64053;BME280;50299;49.524;8.536;2024-02-16T00:53:10;100265.41;;;9.25;60.50
64053;BME280;50299;49.524;8.536;2024-02-16T00:55:36;100269.94;;;9.21;60.68
64053;BME280;50299;49.524;8.536;2024-02-16T00:58:03;100265.88;;;9.36;60.47
64053;BME280;50299;49.524;8.536;2024-02-16T01:00:30;100266.84;;;9.31;60.28
64053;BME280;50299;49.524;8.536;2024-02-16T01:02:57;100268.00;;;9.22;60.84
64053;BME280;50299;49.524;8.536;2024-02-16T01:05:24;100270.25;;;9.28;61.02
64053;BME280;50299;49.524;8.536;2024-02-16T01:07:50;100272.03;;;9.24;61.19
64053;BME280;50299;49.524;8.536;2024-02-16T01:10:17;100269.28;;;9.24;60.72
64053;BME280;50299;49.524;8.536;2024-02-16T01:12:43;100268.97;;;9.26;61.75
64053;BME280;50299;49.524;8.536;2024-02-16T01:15:09;100279.66;;;9.19;61.38
64053;BME280;50299;49.524;8.536;2024-02-16T01:17:37;100274.94;;;9.36;61.18
64053;BME280;50299;49.524;8.536;2024-02-16T01:20:06;100272.19;;;9.28;60.88
64053;BME280;50299;49.524;8.536;2024-02-16T01:22:36;100270.25;;;9.20;61.10
64053;BME280;50299;49.524;8.536;2024-02-16T01:25:03;100277.53;;;9.33;60.95
64053;BME280;50299;49.524;8.536;2024-02-16T01:27:30;100278.22;;;9.38;61.73
64053;BME280;50299;49.524;8.536;2024-02-16T01:29:56;100284.03;;;9.37;60.74
64053;BME280;50299;49.524;8.536;2024-02-16T01:32:23;100280.47;;;9.45;61.11
64053;BME280;50299;49.524;8.536;2024-02-16T01:34:49;100289.88;;;9.53;60.23
64053;BME280;50299;49.524;8.536;2024-02-16T01:37:16;100290.38;;;9.55;60.56
64053;BME280;50299;49.524;8.536;2024-02-16T01:39:43;100285.97;;;9.54;60.20
64053;BME280;50299;49.524;8.536;2024-02-16T01:42:12;100284.19;;;9.58;60.62
64053;BME280;50299;49.524;8.536;2024-02-16T01:44:39;100283.91;;;9.42;60.58
64053;BME280;50299;49.524;8.536;2024-02-16T01:47:05;100290.06;;;9.39;60.25
64053;BME280;50299;49.524;8.536;2024-02-16T01:49:33;100290.22;;;9.43;60.36
64053;BME280;50299;49.524;8.536;2024-02-16T01:52:00;100286.31;;;9.44;60.71
64053;BME280;50299;49.524;8.536;2024-02-16T01:54:26;100282.25;;;9.41;59.82
64053;BME280;50299;49.524;8.536;2024-02-16T01:56:54;100279.66;;;9.53;60.34
64053;BME280;50299;49.524;8.536;2024-02-16T01:59:22;100282.41;;;9.36;60.35
64053;BME280;50299;49.524;8.536;2024-02-16T02:01:51;100285.00;;;9.24;60.05
64053;BME280;50299;49.524;8.536;2024-02-16T02:04:17;100272.84;;;9.25;60.73
64053;BME280;50299;49.524;8.536;2024-02-16T02:06:45;100285.53;;;9.17;60.60
64053;BME280;50299;49.524;8.536;2024-02-16T02:09:12;100277.53;;;9.24;60.88
64053;BME280;50299;49.524;8.536;2024-02-16T02:11:38;100284.72;;;9.34;60.44
64053;BME280;50299;49.524;8.536;2024-02-16T02:14:05;100282.59;;;9.22;61.11
64053;BME280;50299;49.524;8.536;2024-02-16T02:16:31;100275.94;;;9.23;60.06
64053;BME280;50299;49.524;8.536;2024-02-16T02:19:12;100267.00;;;9.09;60.77
64053;BME280;50299;49.524;8.536;2024-02-16T02:21:39;100268.47;;;9.24;61.19
64053;BME280;50299;49.524;8.536;2024-02-16T02:24:05;100278.06;;;9.26;59.77
64053;BME280;50299;49.524;8.536;2024-02-16T02:26:35;100265.06;;;9.35;60.53
64053;BME280;50299;49.524;8.536;2024-02-16T02:29:02;100269.78;;;9.26;59.87
64053;BME280;50299;49.524;8.536;2024-02-16T02:31:28;100268.63;;;9.36;60.60
64053;BME280;50299;49.524;8.536;2024-02-16T02:33:55;100274.66;;;9.29;60.64
64053;BME280;50299;49.524;8.536;2024-02-16T02:36:22;100273.97;;;9.32;60.36
64053;BME280;50299;49.524;8.536;2024-02-16T02:38:48;100264.41;;;9.38;60.63
64053;BME280;50299;49.524;8.536;2024-02-16T02:41:16;100268.16;;;9.25;60.85
64053;BME280;50299;49.524;8.536;2024-02-16T02:43:43;100265.22;;;9.13;61.21
64053;BME280;50299;49.524;8.536;2024-02-16T02:46:16;100263.44;;;9.26;62.38
64053;BME280;50299;49.524;8.536;2024-02-16T02:48:45;100256.16;;;9.30;61.90
64053;BME280;50299;49.524;8.536;2024-02-16T02:51:17;100255.66;;;9.28;61.83
64053;BME280;50299;49.524;8.536;2024-02-16T02:53:44;100257.78;;;9.22;61.98
64053;BME280;50299;49.524;8.536;2024-02-16T02:56:10;100250.78;;;9.07;62.51
64053;BME280;50299;49.524;8.536;2024-02-16T02:58:39;100246.25;;;9.03;62.56
64053;BME280;50299;49.524;8.536;2024-02-16T03:01:05;100245.75;;;9.01;63.03
64053;BME280;50299;49.524;8.536;2024-02-16T03:03:34;100239.56;;;8.86;63.32
64053;BME280;50299;49.524;8.536;2024-02-16T03:06:00;100239.56;;;8.95;63.71
64053;BME280;50299;49.524;8.536;2024-02-16T03:08:27;100241.69;;;8.98;63.45
64053;BME280;50299;49.524;8.536;2024-02-16T03:10:53;100237.16;;;9.02;63.80
64053;BME280;50299;49.524;8.536;2024-02-16T03:13:20;100243.47;;;9.11;64.31
64053;BME280;50299;49.524;8.536;2024-02-16T03:15:46;100238.13;;;9.15;64.21
64053;BME280;50299;49.524;8.536;2024-02-16T03:18:13;100250.94;;;9.20;63.08
64053;BME280;50299;49.524;8.536;2024-02-16T03:20:41;100247.84;;;9.12;63.54
64053;BME280;50299;49.524;8.536;2024-02-16T03:23:12;100247.38;;;9.02;63.75
64053;BME280;50299;49.524;8.536;2024-02-16T03:25:38;100250.47;;;9.18;63.25
64053;BME280;50299;49.524;8.536;2024-02-16T03:28:07;100245.75;;;9.18;63.08
64053;BME280;50299;49.524;8.536;2024-02-16T03:30:34;100249.78;;;9.21;63.58
64053;BME280;50299;49.524;8.536;2024-02-16T03:33:00;100257.59;;;9.27;63.32
64053;BME280;50299;49.524;8.536;2024-02-16T03:35:27;100251.09;;;9.32;62.79
64053;BME280;50299;49.524;8.536;2024-02-16T03:37:53;100262.94;;;9.32;62.20
64053;BME280;50299;49.524;8.536;2024-02-16T03:40:20;100262.63;;;9.43;62.06
64053;BME280;50299;49.524;8.536;2024-02-16T03:42:46;100264.91;;;9.32;61.41
64053;BME280;50299;49.524;8.536;2024-02-16T03:45:13;100262.63;;;9.43;62.67
64053;BME280;50299;49.524;8.536;2024-02-16T03:47:43;100266.03;;;9.40;61.77
64053;BME280;50299;49.524;8.536;2024-02-16T03:50:10;100263.28;;;9.31;62.39
64053;BME280;50299;49.524;8.536;2024-02-16T03:52:37;100273.50;;;9.39;62.16
64053;BME280;50299;49.524;8.536;2024-02-16T03:55:04;100267.19;;;9.38;62.07
64053;BME280;50299;49.524;8.536;2024-02-16T03:57:32;100266.84;;;9.31;61.40
64053;BME280;50299;49.524;8.536;2024-02-16T03:59:58;100269.13;;;9.29;62.56
64053;BME280;50299;49.524;8.536;2024-02-16T04:02:25;100275.13;;;9.23;62.39
64053;BME280;50299;49.524;8.536;2024-02-16T04:04:52;100281.13;;;9.16;63.14
64053;BME280;50299;49.524;8.536;2024-02-16T04:07:18;100283.22;;;9.10;63.25
64053;BME280;50299;49.524;8.536;2024-02-16T04:09:45;100276.56;;;9.03;62.43
64053;BME280;50299;49.524;8.536;2024-02-16T04:12:14;100270.72;;;8.96;62.86
64053;BME280;50299;49.524;8.536;2024-02-16T04:14:41;100280.44;;;8.84;63.13
64053;BME280;50299;49.524;8.536;2024-02-16T04:17:08;100285.63;;;8.77;62.48
64053;BME280;50299;49.524;8.536;2024-02-16T04:19:36;100284.88;;;8.63;63.69
64053;BME280;50299;49.524;8.536;2024-02-16T04:22:03;100285.03;;;8.58;63.58
64053;BME280;50299;49.524;8.536;2024-02-16T04:24:30;100282.09;;;8.54;63.66
64053;BME280;50299;49.524;8.536;2024-02-16T04:26:56;100288.53;;;8.41;63.98
64053;BME280;50299;49.524;8.536;2024-02-16T04:29:23;100286.72;;;8.28;64.49
64053;BME280;50299;49.524;8.536;2024-02-16T04:31:49;100287.94;;;8.13;64.87
64053;BME280;50299;49.524;8.536;2024-02-16T04:34:19;100294.16;;;7.96;64.36
64053;BME280;50299;49.524;8.536;2024-02-16T04:36:46;100299.38;;;7.98;65.05
64053;BME280;50299;49.524;8.536;2024-02-16T04:39:12;100295.91;;;7.92;64.70
64053;BME280;50299;49.524;8.536;2024-02-16T04:41:41;100294.25;;;7.82;65.10
64053;BME280;50299;49.524;8.536;2024-02-16T04:44:07;100293.06;;;7.75;65.34
64053;BME280;50299;49.524;8.536;2024-02-16T04:46:34;100290.94;;;7.72;65.90
64053;BME280;50299;49.524;8.536;2024-02-16T04:49:00;100288.00;;;7.68;66.11
64053;BME280;50299;49.524;8.536;2024-02-16T04:51:27;100290.69;;;7.59;66.14
64053;BME280;50299;49.524;8.536;2024-02-16T04:53:53;100281.50;;;7.64;66.28
64053;BME280;50299;49.524;8.536;2024-02-16T04:56:20;100286.88;;;7.69;66.15
64053;BME280;50299;49.524;8.536;2024-02-16T04:58:46;100283.19;;;7.51;66.72
64053;BME280;50299;49.524;8.536;2024-02-16T05:01:13;100281.56;;;7.50;66.85
64053;BME280;50299;49.524;8.536;2024-02-16T05:03:39;100278.25;;;7.62;66.93
64053;BME280;50299;49.524;8.536;2024-02-16T05:06:07;100285.75;;;7.70;66.05
64053;BME280;50299;49.524;8.536;2024-02-16T05:08:34;100283.16;;;7.65;65.84
64053;BME280;50299;49.524;8.536;2024-02-16T05:11:00;100282.69;;;7.72;65.93
64053;BME280;50299;49.524;8.536;2024-02-16T05:13:28;100280.25;;;7.70;65.76
64053;BME280;50299;49.524;8.536;2024-02-16T05:15:55;100284.00;;;7.74;65.15
64053;BME280;50299;49.524;8.536;2024-02-16T05:18:22;100278.63;;;7.69;65.12
64053;BME280;50299;49.524;8.536;2024-02-16T05:20:49;100280.56;;;7.69;65.68
64053;BME280;50299;49.524;8.536;2024-02-16T05:23:15;100280.44;;;7.74;65.59
64053;BME280;50299;49.524;8.536;2024-02-16T05:25:42;100278.56;;;7.83;64.55
64053;BME280;50299;49.524;8.536;2024-02-16T05:28:08;100279.72;;;7.91;64.39
64053;BME280;50299;49.524;8.536;2024-02-16T05:30:35;100284.63;;;7.94;64.08
64053;BME280;50299;49.524;8.536;2024-02-16T05:33:02;100280.03;;;7.89;64.39
64053;BME280;50299;49.524;8.536;2024-02-16T05:35:29;100278.78;;;7.95;63.69
64053;BME280;50299;49.524;8.536;2024-02-16T05:38:00;100282.16;;;7.92;63.99
64053;BME280;50299;49.524;8.536;2024-02-16T05:40:33;100280.97;;;7.84;64.21
64053;BME280;50299;49.524;8.536;2024-02-16T05:43:11;100284.53;;;7.85;64.17
64053;BME280;50299;49.524;8.536;2024-02-16T05:45:38;100285.75;;;8.01;63.93
64053;BME280;50299;49.524;8.536;2024-02-16T05:48:07;100286.94;;;8.09;64.00
64053;BME280;50299;49.524;8.536;2024-02-16T05:50:37;100284.75;;;8.20;63.72
64053;BME280;50299;49.524;8.536;2024-02-16T05:53:03;100301.56;;;8.18;63.23
64053;BME280;50299;49.524;8.536;2024-02-16T05:55:30;100298.94;;;8.13;62.74
64053;BME280;50299;49.524;8.536;2024-02-16T05:57:56;100292.91;;;8.02;63.06
64053;BME280;50299;49.524;8.536;2024-02-16T06:00:23;100299.31;;;8.20;63.00
64053;BME280;50299;49.524;8.536;2024-02-16T06:02:49;100306.28;;;8.26;63.08
64053;BME280;50299;49.524;8.536;2024-02-16T06:05:16;100302.91;;;8.29;62.64
64053;BME280;50299;49.524;8.536;2024-02-16T06:07:42;100304.38;;;8.27;62.51
64053;BME280;50299;49.524;8.536;2024-02-16T06:10:09;100302.63;;;8.31;61.96
64053;BME280;50299;49.524;8.536;2024-02-16T06:12:38;100299.03;;;8.30;61.92
64053;BME280;50299;49.524;8.536;2024-02-16T06:15:05;100311.88;;;8.35;62.23
64053;BME280;50299;49.524;8.536;2024-02-16T06:17:32;100318.38;;;8.39;62.48
64053;BME280;50299;49.524;8.536;2024-02-16T06:19:59;100321.91;;;8.31;62.48
64053;BME280;50299;49.524;8.536;2024-02-16T06:22:27;100315.06;;;8.28;62.52
64053;BME280;50299;49.524;8.536;2024-02-16T06:24:54;100313.31;;;8.32;61.62
64053;BME280;50299;49.524;8.536;2024-02-16T06:27:21;100317.69;;;8.33;62.84
64053;BME280;50299;49.524;8.536;2024-02-16T06:29:47;100329.59;;;8.20;62.41
64053;BME280;50299;49.524;8.536;2024-02-16T06:32:14;100334.19;;;8.33;62.21
64053;BME280;50299;49.524;8.536;2024-02-16T06:34:43;100335.38;;;8.41;62.19
64053;BME280;50299;49.524;8.536;2024-02-16T06:37:12;100334.56;;;8.41;62.02
64053;BME280;50299;49.524;8.536;2024-02-16T06:39:38;100336.72;;;8.21;61.77
64053;BME280;50299;49.524;8.536;2024-02-16T06:42:06;100337.00;;;8.11;61.71
64053;BME280;50299;49.524;8.536;2024-02-16T06:44:32;100334.25;;;8.11;62.65
64053;BME280;50299;49.524;8.536;2024-02-16T06:47:02;100342.19;;;8.12;62.37
64053;BME280;50299;49.524;8.536;2024-02-16T06:49:28;100345.00;;;8.21;62.27
64053;BME280;50299;49.524;8.536;2024-02-16T06:51:54;100352.47;;;8.29;62.15
64053;BME280;50299;49.524;8.536;2024-02-16T06:54:21;100349.25;;;8.27;61.68
64053;BME280;50299;49.524;8.536;2024-02-16T06:56:48;100351.41;;;8.39;62.06
64053;BME280;50299;49.524;8.536;2024-02-16T06:59:20;100354.63;;;8.32;61.28
64053;BME280;50299;49.524;8.536;2024-02-16T07:01:46;100351.97;;;8.19;62.55
64053;BME280;50299;49.524;8.536;2024-02-16T07:04:13;100346.13;;;8.20;61.89
64053;BME280;50299;49.524;8.536;2024-02-16T07:06:41;100360.56;;;8.26;62.16
64053;BME280;50299;49.524;8.536;2024-02-16T07:09:07;100358.84;;;8.38;61.34
64053;BME280;50299;49.524;8.536;2024-02-16T07:11:34;100369.19;;;8.64;60.90
64053;BME280;50299;49.524;8.536;2024-02-16T07:14:04;100366.06;;;8.57;60.99
64053;BME280;50299;49.524;8.536;2024-02-16T07:16:32;100372.97;;;8.68;61.22
64053;BME280;50299;49.524;8.536;2024-02-16T07:18:59;100375.97;;;8.89;61.88
64053;BME280;50299;49.524;8.536;2024-02-16T07:21:26;100381.34;;;9.03;61.69
64053;BME280;50299;49.524;8.536;2024-02-16T07:23:53;100386.69;;;8.99;61.48
64053;BME280;50299;49.524;8.536;2024-02-16T07:26:20;100403.44;;;9.20;60.82
64053;BME280;50299;49.524;8.536;2024-02-16T07:28:47;100391.78;;;9.23;60.63
64053;BME280;50299;49.524;8.536;2024-02-16T07:31:14;100394.25;;;9.42;59.78
64053;BME280;50299;49.524;8.536;2024-02-16T07:33:41;100401.53;;;9.29;59.05
64053;BME280;50299;49.524;8.536;2024-02-16T07:36:08;100394.94;;;8.91;60.15
64053;BME280;50299;49.524;8.536;2024-02-16T07:38:35;100397.31;;;8.83;60.37
64053;BME280;50299;49.524;8.536;2024-02-16T07:41:02;100403.63;;;8.75;61.33
64053;BME280;50299;49.524;8.536;2024-02-16T07:43:33;100405.47;;;8.88;60.56
64053;BME280;50299;49.524;8.536;2024-02-16T07:45:59;100410.34;;;8.92;60.69
64053;BME280;50299;49.524;8.536;2024-02-16T07:48:26;100415.72;;;8.97;60.84
64053;BME280;50299;49.524;8.536;2024-02-16T07:50:55;100418.31;;;9.02;60.49
64053;BME280;50299;49.524;8.536;2024-02-16T07:53:24;100418.47;;;8.97;60.41
64053;BME280;50299;49.524;8.536;2024-02-16T07:55:50;100412.97;;;8.97;60.85
64053;BME280;50299;49.524;8.536;2024-02-16T07:58:17;100409.91;;;9.07;60.69
64053;BME280;50299;49.524;8.536;2024-02-16T08:00:44;100416.03;;;8.95;61.30
64053;BME280;50299;49.524;8.536;2024-02-16T08:03:12;100413.78;;;8.97;60.74
64053;BME280;50299;49.524;8.536;2024-02-16T08:05:39;100414.00;;;9.18;60.97
64053;BME280;50299;49.524;8.536;2024-02-16T08:08:05;100415.50;;;9.42;60.42
64053;BME280;50299;49.524;8.536;2024-02-16T08:10:32;100416.63;;;9.49;59.93
64053;BME280;50299;49.524;8.536;2024-02-16T08:12:58;100421.84;;;9.51;59.87
64053;BME280;50299;49.524;8.536;2024-02-16T08:15:25;100419.56;;;9.53;60.33
64053;BME280;50299;49.524;8.536;2024-02-16T08:17:52;100418.78;;;9.61;60.42
64053;BME280;50299;49.524;8.536;2024-02-16T08:20:19;100431.41;;;9.62;59.99
64053;BME280;50299;49.524;8.536;2024-02-16T08:22:47;100427.59;;;9.80;60.02
64053;BME280;50299;49.524;8.536;2024-02-16T08:25:14;100431.31;;;9.76;58.87
64053;BME280;50299;49.524;8.536;2024-02-16T08:27:40;100430.78;;;9.65;59.70
64053;BME280;50299;49.524;8.536;2024-02-16T08:30:07;100432.13;;;9.76;59.14
64053;BME280;50299;49.524;8.536;2024-02-16T08:32:36;100435.53;;;9.99;59.18
64053;BME280;50299;49.524;8.536;2024-02-16T08:35:02;100432.63;;;9.87;59.13
64053;BME280;50299;49.524;8.536;2024-02-16T08:37:29;100442.31;;;10.28;59.08
64053;BME280;50299;49.524;8.536;2024-02-16T08:39:56;100445.56;;;10.39;57.46
64053;BME280;50299;49.524;8.536;2024-02-16T08:42:22;100444.06;;;10.58;57.83
64053;BME280;50299;49.524;8.536;2024-02-16T08:44:50;100440.44;;;10.84;56.74
64053;BME280;50299;49.524;8.536;2024-02-16T08:47:17;100439.81;;;10.78;55.74
64053;BME280;50299;49.524;8.536;2024-02-16T08:49:43;100442.56;;;10.78;56.02
64053;BME280;50299;49.524;8.536;2024-02-16T08:52:11;100432.91;;;10.93;56.14
64053;BME280;50299;49.524;8.536;2024-02-16T08:54:38;100437.06;;;11.08;55.09
64053;BME280;50299;49.524;8.536;2024-02-16T08:57:04;100440.19;;;11.06;54.64
64053;BME280;50299;49.524;8.536;2024-02-16T08:59:32;100439.56;;;11.30;54.66
64053;BME280;50299;49.524;8.536;2024-02-16T09:01:59;100442.53;;;11.25;53.10
64053;BME280;50299;49.524;8.536;2024-02-16T09:04:26;100453.38;;;11.30;54.62
64053;BME280;50299;49.524;8.536;2024-02-16T09:06:52;100453.66;;;11.67;54.77
64053;BME280;50299;49.524;8.536;2024-02-16T09:09:20;100454.63;;;11.92;52.83
64053;BME280;50299;49.524;8.536;2024-02-16T09:11:46;100452.13;;;12.20;54.10
64053;BME280;50299;49.524;8.536;2024-02-16T09:14:13;100462.97;;;12.46;54.11
64053;BME280;50299;49.524;8.536;2024-02-16T09:16:39;100456.09;;;12.31;50.02
64053;BME280;50299;49.524;8.536;2024-02-16T09:19:06;100455.19;;;12.40;52.38
64053;BME280;50299;49.524;8.536;2024-02-16T09:21:33;100455.69;;;12.54;52.11
64053;BME280;50299;49.524;8.536;2024-02-16T09:24:00;100457.09;;;12.60;51.30
64053;BME280;50299;49.524;8.536;2024-02-16T09:26:28;100454.34;;;12.60;51.05
64053;BME280;50299;49.524;8.536;2024-02-16T09:28:59;100469.66;;;12.78;50.58
64053;BME280;50299;49.524;8.536;2024-02-16T09:31:25;100473.47;;;12.86;50.30
64053;BME280;50299;49.524;8.536;2024-02-16T09:33:52;100470.97;;;12.93;51.94
64053;BME280;50299;49.524;8.536;2024-02-16T09:36:20;100469.00;;;12.94;50.69
64053;BME280;50299;49.524;8.536;2024-02-16T09:38:46;100470.16;;;13.05;50.23
64053;BME280;50299;49.524;8.536;2024-02-16T09:41:13;100477.34;;;13.43;50.87
64053;BME280;50299;49.524;8.536;2024-02-16T09:43:42;100481.25;;;13.91;50.48
64053;BME280;50299;49.524;8.536;2024-02-16T09:46:09;100490.00;;;14.05;48.00
64053;BME280;50299;49.524;8.536;2024-02-16T09:48:36;100490.38;;;14.31;48.51
64053;BME280;50299;49.524;8.536;2024-02-16T09:51:02;100494.09;;;14.36;49.12
64053;BME280;50299;49.524;8.536;2024-02-16T09:53:31;100492.63;;;14.14;47.88
64053;BME280;50299;49.524;8.536;2024-02-16T09:55:57;100493.66;;;14.21;48.77
64053;BME280;50299;49.524;8.536;2024-02-16T09:58:24;100495.81;;;14.40;48.12
64053;BME280;50299;49.524;8.536;2024-02-16T10:00:52;100497.88;;;14.43;47.55
64053;BME280;50299;49.524;8.536;2024-02-16T10:03:27;100495.63;;;14.77;47.40
64053;BME280;50299;49.524;8.536;2024-02-16T10:06:08;100500.03;;;14.94;46.70
64053;BME280;50299;49.524;8.536;2024-02-16T10:08:50;100506.38;;;15.22;48.16
64053;BME280;50299;49.524;8.536;2024-02-16T10:11:19;100514.53;;;15.47;45.76
64053;BME280;50299;49.524;8.536;2024-02-16T10:14:03;100506.59;;;16.00;47.17
64053;BME280;50299;49.524;8.536;2024-02-16T10:16:30;100519.94;;;16.26;44.66
64053;BME280;50299;49.524;8.536;2024-02-16T10:19:05;100512.16;;;16.55;44.62
64053;BME280;50299;49.524;8.536;2024-02-16T10:21:33;100526.22;;;16.81;45.40
64053;BME280;50299;49.524;8.536;2024-02-16T10:24:02;100515.22;;;17.11;44.66
64053;BME280;50299;49.524;8.536;2024-02-16T10:26:32;100515.41;;;16.99;44.40
64053;BME280;50299;49.524;8.536;2024-02-16T10:28:58;100520.13;;;16.95;42.20
64053;BME280;50299;49.524;8.536;2024-02-16T10:31:25;100523.34;;;17.20;42.42
64053;BME280;50299;49.524;8.536;2024-02-16T10:34:01;100525.09;;;17.28;42.00
64053;BME280;50299;49.524;8.536;2024-02-16T10:36:33;100527.91;;;17.32;42.03
64053;BME280;50299;49.524;8.536;2024-02-16T10:39:00;100526.66;;;17.48;43.09
64053;BME280;50299;49.524;8.536;2024-02-16T10:41:37;100530.94;;;17.42;41.41
64053;BME280;50299;49.524;8.536;2024-02-16T10:44:05;100528.50;;;17.41;42.26
64053;BME280;50299;49.524;8.536;2024-02-16T10:46:33;100536.34;;;17.35;42.16
64053;BME280;50299;49.524;8.536;2024-02-16T10:48:59;100531.56;;;16.90;41.97
64053;BME280;50299;49.524;8.536;2024-02-16T10:54:03;100524.00;;;16.90;43.81
64053;BME280;50299;49.524;8.536;2024-02-16T10:56:36;100533.59;;;17.12;42.10
64053;BME280;50299;49.524;8.536;2024-02-16T10:59:07;100536.94;;;17.21;42.34
64053;BME280;50299;49.524;8.536;2024-02-16T11:01:39;100540.50;;;17.41;42.50
64053;BME280;50299;49.524;8.536;2024-02-16T11:04:07;100540.63;;;17.48;42.17
64053;BME280;50299;49.524;8.536;2024-02-16T11:06:52;100535.47;;;17.77;44.16
64053;BME280;50299;49.524;8.536;2024-02-16T11:11:58;100544.81;;;17.88;40.44
64053;BME280;50299;49.524;8.536;2024-02-16T11:14:34;100546.75;;;17.84;40.71
64053;BME280;50299;49.524;8.536;2024-02-16T11:17:01;100538.88;;;17.93;41.00
64053;BME280;50299;49.524;8.536;2024-02-16T11:19:29;100535.28;;;18.19;42.42
64053;BME280;50299;49.524;8.536;2024-02-16T11:22:02;100537.16;;;18.42;41.83
64053;BME280;50299;49.524;8.536;2024-02-16T11:24:31;100530.97;;;18.56;39.94
64053;BME280;50299;49.524;8.536;2024-02-16T11:27:01;100528.50;;;18.88;40.88
64053;BME280;50299;49.524;8.536;2024-02-16T11:29:35;100530.72;;;19.05;40.98
64053;BME280;50299;49.524;8.536;2024-02-16T11:32:03;100533.56;;;19.12;39.22
64053;BME280;50299;49.524;8.536;2024-02-16T11:34:30;100538.22;;;18.97;39.63
64053;BME280;50299;49.524;8.536;2024-02-16T11:36:58;100532.72;;;19.08;40.73
64053;BME280;50299;49.524;8.536;2024-02-16T11:39:25;100534.97;;;18.92;39.32
64053;BME280;50299;49.524;8.536;2024-02-16T11:42:05;100534.47;;;18.83;40.36
64053;BME280;50299;49.524;8.536;2024-02-16T11:44:33;100540.47;;;18.81;39.75
64053;BME280;50299;49.524;8.536;2024-02-16T11:47:01;100532.50;;;18.87;42.00
64053;BME280;50299;49.524;8.536;2024-02-16T11:49:29;100534.34;;;18.75;40.26
64053;BME280;50299;49.524;8.536;2024-02-16T11:51:56;100532.34;;;18.39;39.79
64053;BME280;50299;49.524;8.536;2024-02-16T11:54:23;100527.47;;;18.06;40.79
64053;BME280;50299;49.524;8.536;2024-02-16T11:56:51;100531.81;;;17.73;41.54
64053;BME280;50299;49.524;8.536;2024-02-16T11:59:19;100522.00;;;17.60;42.56
64053;BME280;50299;49.524;8.536;2024-02-16T12:01:52;100524.69;;;17.30;41.35
64053;BME280;50299;49.524;8.536;2024-02-16T12:04:27;100524.16;;;17.20;42.45
64053;BME280;50299;49.524;8.536;2024-02-16T12:07:02;100519.47;;;16.82;42.72
64053;BME280;50299;49.524;8.536;2024-02-16T12:09:31;100517.44;;;16.79;44.02
64053;BME280;50299;49.524;8.536;2024-02-16T12:12:01;100521.25;;;16.71;42.96
64053;BME280;50299;49.524;8.536;2024-02-16T12:14:29;100523.38;;;16.39;44.43
64053;BME280;50299;49.524;8.536;2024-02-16T12:16:56;100521.28;;;16.16;43.71
64053;BME280;50299;49.524;8.536;2024-02-16T12:19:24;100526.06;;;16.16;44.53
64053;BME280;50299;49.524;8.536;2024-02-16T12:21:52;100527.03;;;16.23;45.15
64053;BME280;50299;49.524;8.536;2024-02-16T12:24:19;100520.16;;;16.17;44.22
64053;BME280;50299;49.524;8.536;2024-02-16T12:26:46;100523.28;;;16.16;45.05
64053;BME280;50299;49.524;8.536;2024-02-16T12:29:13;100529.66;;;16.16;44.91
64053;BME280;50299;49.524;8.536;2024-02-16T12:31:40;100530.34;;;16.29;45.38
64053;BME280;50299;49.524;8.536;2024-02-16T12:34:07;100528.06;;;16.73;43.65
64053;BME280;50299;49.524;8.536;2024-02-16T12:36:35;100529.47;;;17.06;44.21
64053;BME280;50299;49.524;8.536;2024-02-16T12:39:02;100532.00;;;17.15;42.78
64053;BME280;50299;49.524;8.536;2024-02-16T12:41:30;100542.50;;;17.21;42.68
64053;BME280;50299;49.524;8.536;2024-02-16T12:43:57;100534.69;;;17.31;43.56
64053;BME280;50299;49.524;8.536;2024-02-16T12:46:23;100536.44;;;17.16;43.36
64053;BME280;50299;49.524;8.536;2024-02-16T12:48:51;100534.50;;;16.97;43.42
64053;BME280;50299;49.524;8.536;2024-02-16T12:51:19;100525.03;;;16.82;43.08
64053;BME280;50299;49.524;8.536;2024-02-16T12:53:46;100535.84;;;17.07;44.86
64053;BME280;50299;49.524;8.536;2024-02-16T12:56:12;100535.25;;;17.17;44.08
64053;BME280;50299;49.524;8.536;2024-02-16T12:58:39;100537.63;;;17.38;44.39
64053;BME280;50299;49.524;8.536;2024-02-16T13:01:06;100533.41;;;17.47;44.25
64053;BME280;50299;49.524;8.536;2024-02-16T13:03:45;100530.66;;;17.28;42.19
64053;BME280;50299;49.524;8.536;2024-02-16T13:06:11;100532.94;;;17.22;43.84